This is the latest recevied weather packets stored in our database for station/object DL4ABR-6. If no packets are shown the sender has not sent any weather packets the latest 10 day(s).
| Time | Temp. | Humidity | Pressure | Rain* | Wind** | Luminosity | Snow |
|---|---|---|---|---|---|---|---|
| 1777685284 | 6.67° C | 89% | 1018.8 hPa | 0 mm | - | - | - |
| 1777684555 | 6.67° C | 88% | 1019 hPa | 0 mm | - | - | - |
| 1777683675 | 6.67° C | 88% | 1019 hPa | 0 mm | - | - | - |
| 1777682899 | 7.22° C | 87% | 1019.3 hPa | 0 mm | - | - | - |
| 1777682060 | 7.78° C | 86% | 1019.3 hPa | 0 mm | - | - | - |
| 1777681230 | 7.78° C | 84% | 1019.5 hPa | 0 mm | - | - | - |
| 1777680350 | 8.33° C | 84% | 1019.7 hPa | 0 mm | - | - | - |
| 1777679570 | 8.33° C | 82% | 1019.7 hPa | 0 mm | - | - | - |
| 1777678730 | 8.89° C | 81% | 1019.5 hPa | 0 mm | - | - | - |
| 1777677954 | 8.89° C | 80% | 1019.7 hPa | 0 mm | - | - | - |
| 1777677144 | 9.44° C | 81% | 1019.8 hPa | 0 mm | - | - | - |
| 1777676400 | 9.44° C | 78% | 1019.9 hPa | 0 mm | - | - | - |
| 1777675620 | 10° C | 77% | 1020 hPa | 0 mm | - | - | - |
| 1777674770 | 10.56° C | 75% | 1019.7 hPa | 0 mm | - | - | - |
| 1777674046 | 10.56° C | 73% | 1019.9 hPa | 0 mm | - | - | - |
| 1777673270 | 11.11° C | 72% | 1020 hPa | 0 mm | - | - | - |
| 1777672490 | 11.11° C | 72% | 1020 hPa | 0 mm | - | - | - |
| 1777671605 | 11.67° C | 71% | 1020 hPa | 0 mm | - | - | - |
| 1777670750 | 12.22° C | 67% | 1020 hPa | 0 mm | - | - | - |
| 1777669945 | 12.78° C | 65% | 1020 hPa | 0 mm | - | - | - |
| 1777669220 | 13.89° C | 61% | 1020 hPa | 0 mm | - | - | - |
| 1777668485 | 15° C | 57% | 1020.1 hPa | 0 mm | - | - | - |
| 1777667630 | 15° C | 54% | 1020.4 hPa | 0 mm | - | - | - |
| 1777666813 | 15.56° C | 54% | 1020.4 hPa | 0 mm | - | - | - |
| 1777666035 | 14.44° C | 59% | 1020.3 hPa | 0 mm | - | - | - |
* Rain since midnight (hover to see other rain measurements)
** Current wind speed in m/s (hover to see current wind gust speed)